LTG8487 SBFL-SBKP
Flight info
| Callsign | LTG8487 |
|---|---|
| Flight time | 0h 50m |
| Altitude | 38000 |
| Route | ILVOR UZ69 UMDOR DCT EDRAT |
| Aircraft | B76F/H-SDE3FGHIM3RWXYZ/LB1 |
Departure
| Time | 2026-05-07 01:37 |
|---|---|
| Airport | Hercílio Luz International Airport (SBFL) |
Arrival
| Time | 2026-05-07 02:28 |
|---|---|
| Airport | Viracopos International Airport (SBKP) |
| Time | Latitude | Longitude | Altitude | Speed | Heading |
|---|---|---|---|---|---|
| 2026-05-07 01:10 | -27.66369 | -48.54869 | 37 ft | 0 kts | 39° |
| 2026-05-07 01:22 | -27.66370 | -48.54869 | 37 ft | 0 kts | 40° |
| 2026-05-07 01:23 | -27.66382 | -48.54877 | 37 ft | 2 kts | 6° |
| 2026-05-07 01:23 | -27.66397 | -48.54875 | 37 ft | 2 kts | 337° |
| 2026-05-07 01:23 | -27.66409 | -48.54866 | 37 ft | 1 kts | 307° |
| 2026-05-07 01:23 | -27.66418 | -48.54852 | 37 ft | 2 kts | 308° |
| 2026-05-07 01:24 | -27.66423 | -48.54844 | 37 ft | 0 kts | 311° |
| 2026-05-07 01:27 | -27.66426 | -48.54842 | 37 ft | 0 kts | 311° |
| 2026-05-07 01:29 | -27.66425 | -48.54842 | 37 ft | 0 kts | 311° |
| 2026-05-07 01:29 | -27.66419 | -48.54850 | 37 ft | 4 kts | 311° |
| 2026-05-07 01:29 | -27.66378 | -48.54906 | 37 ft | 12 kts | 309° |
| 2026-05-07 01:30 | -27.66337 | -48.54978 | 37 ft | 8 kts | 279° |
| 2026-05-07 01:30 | -27.66348 | -48.55043 | 37 ft | 8 kts | 252° |
| 2026-05-07 01:30 | -27.66367 | -48.55110 | 37 ft | 9 kts | 252° |
| 2026-05-07 01:30 | -27.66406 | -48.55163 | 37 ft | 9 kts | 208° |
| 2026-05-07 01:31 | -27.66475 | -48.55185 | 37 ft | 11 kts | 192° |
| 2026-05-07 01:31 | -27.66564 | -48.55206 | 37 ft | 14 kts | 192° |
| 2026-05-07 01:31 | -27.66668 | -48.55232 | 37 ft | 15 kts | 189° |
| 2026-05-07 01:31 | -27.66730 | -48.55173 | 37 ft | 12 kts | 121° |
| 2026-05-07 01:32 | -27.66781 | -48.55076 | 35 ft | 16 kts | 121° |
| 2026-05-07 01:32 | -27.66847 | -48.54952 | 34 ft | 19 kts | 121° |
| 2026-05-07 01:32 | -27.66925 | -48.54809 | 34 ft | 21 kts | 121° |
| 2026-05-07 01:32 | -27.67004 | -48.54659 | 34 ft | 23 kts | 120° |
| 2026-05-07 01:33 | -27.67095 | -48.54491 | 33 ft | 24 kts | 121° |
| 2026-05-07 01:33 | -27.67182 | -48.54328 | 33 ft | 22 kts | 121° |
| 2026-05-07 01:33 | -27.67253 | -48.54194 | 33 ft | 19 kts | 121° |
| 2026-05-07 01:33 | -27.67322 | -48.54068 | 33 ft | 18 kts | 122° |
| 2026-05-07 01:34 | -27.67386 | -48.53949 | 34 ft | 16 kts | 121° |
| 2026-05-07 01:34 | -27.67446 | -48.53837 | 35 ft | 16 kts | 121° |
| 2026-05-07 01:34 | -27.67508 | -48.53726 | 34 ft | 17 kts | 122° |
| 2026-05-07 01:34 | -27.67572 | -48.53607 | 33 ft | 18 kts | 121° |
| 2026-05-07 01:35 | -27.67638 | -48.53484 | 32 ft | 18 kts | 121° |
| 2026-05-07 01:35 | -27.67704 | -48.53360 | 32 ft | 18 kts | 121° |
| 2026-05-07 01:35 | -27.67768 | -48.53243 | 32 ft | 17 kts | 124° |
| 2026-05-07 01:35 | -27.67772 | -48.53130 | 32 ft | 15 kts | 45° |
| 2026-05-07 01:36 | -27.67682 | -48.53079 | 32 ft | 13 kts | 354° |
| 2026-05-07 01:36 | -27.67624 | -48.53151 | 32 ft | 4 kts | 301° |
| 2026-05-07 01:36 | -27.67623 | -48.53152 | 32 ft | 2 kts | 301° |
| 2026-05-07 01:36 | -27.67500 | -48.53382 | 32 ft | 65 kts | 301° |
| 2026-05-07 01:37 | -27.67160 | -48.54014 | 33 ft | 120 kts | 301° |
| 2026-05-07 01:37 | -27.66638 | -48.54989 | 62 ft | 165 kts | 303° |
| 2026-05-07 01:37 | -27.66009 | -48.56134 | 589 ft | 173 kts | 304° |
| 2026-05-07 01:37 | -27.65391 | -48.57281 | 1235 ft | 178 kts | 305° |
| 2026-05-07 01:38 | -27.64735 | -48.58485 | 1747 ft | 187 kts | 306° |
| 2026-05-07 01:38 | -27.63891 | -48.59687 | 2076 ft | 204 kts | 330° |
| 2026-05-07 01:38 | -27.62496 | -48.60146 | 2553 ft | 216 kts | 6° |
| 2026-05-07 01:38 | -27.61059 | -48.59539 | 3145 ft | 232 kts | 34° |
| 2026-05-07 01:39 | -27.59746 | -48.58406 | 3823 ft | 243 kts | 34° |
| 2026-05-07 01:39 | -27.58365 | -48.57297 | 4670 ft | 247 kts | 34° |
| 2026-05-07 01:39 | -27.56923 | -48.56159 | 5471 ft | 254 kts | 33° |
| 2026-05-07 01:39 | -27.55453 | -48.55018 | 6005 ft | 267 kts | 33° |
| 2026-05-07 01:40 | -27.53853 | -48.53828 | 6034 ft | 273 kts | 25° |
| 2026-05-07 01:40 | -27.52046 | -48.53313 | 6307 ft | 275 kts | 357° |
| 2026-05-07 01:40 | -27.50150 | -48.53662 | 7223 ft | 273 kts | 351° |
| 2026-05-07 01:40 | -27.48257 | -48.53897 | 8102 ft | 276 kts | 356° |
| 2026-05-07 01:41 | -27.46344 | -48.54004 | 8941 ft | 279 kts | 358° |
| 2026-05-07 01:41 | -27.44359 | -48.54047 | 9777 ft | 283 kts | 359° |
| 2026-05-07 01:41 | -27.42377 | -48.54048 | 10501 ft | 290 kts | 359° |
| 2026-05-07 01:41 | -27.40280 | -48.54023 | 10929 ft | 309 kts | 0° |
| 2026-05-07 01:42 | -27.38059 | -48.53979 | 11358 ft | 327 kts | 0° |
| 2026-05-07 01:42 | -27.35702 | -48.53922 | 11886 ft | 342 kts | 0° |
| 2026-05-07 01:42 | -27.33313 | -48.53859 | 12696 ft | 347 kts | 0° |
| 2026-05-07 01:42 | -27.30874 | -48.53793 | 13418 ft | 353 kts | 0° |
| 2026-05-07 01:43 | -27.28381 | -48.53724 | 14171 ft | 358 kts | 0° |
| 2026-05-07 01:43 | -27.25878 | -48.53654 | 14879 ft | 364 kts | 0° |
| 2026-05-07 01:43 | -27.23326 | -48.53583 | 15589 ft | 369 kts | 360° |
| 2026-05-07 01:43 | -27.20735 | -48.53509 | 16273 ft | 375 kts | 360° |
| 2026-05-07 01:44 | -27.18099 | -48.53434 | 16956 ft | 380 kts | 359° |
| 2026-05-07 01:44 | -27.15392 | -48.53358 | 17608 ft | 386 kts | 359° |
| 2026-05-07 01:44 | -27.12677 | -48.53281 | 18300 ft | 390 kts | 359° |
| 2026-05-07 01:44 | -27.09945 | -48.53204 | 18948 ft | 395 kts | 359° |
| 2026-05-07 01:45 | -27.07197 | -48.53126 | 19594 ft | 398 kts | 359° |
| 2026-05-07 01:45 | -27.04400 | -48.53068 | 20250 ft | 400 kts | 356° |
| 2026-05-07 01:45 | -27.01620 | -48.53276 | 20835 ft | 403 kts | 352° |
| 2026-05-07 01:45 | -26.98796 | -48.53509 | 21466 ft | 406 kts | 353° |
| 2026-05-07 01:46 | -26.95952 | -48.53751 | 22059 ft | 410 kts | 353° |
| 2026-05-07 01:46 | -26.93058 | -48.53991 | 22626 ft | 415 kts | 353° |
| 2026-05-07 01:46 | -26.90159 | -48.54231 | 23218 ft | 418 kts | 352° |
| 2026-05-07 01:46 | -26.87244 | -48.54473 | 23753 ft | 423 kts | 352° |
| 2026-05-07 01:47 | -26.84295 | -48.54717 | 24291 ft | 427 kts | 352° |
| 2026-05-07 01:47 | -26.81306 | -48.54963 | 24814 ft | 431 kts | 352° |
| 2026-05-07 01:47 | -26.78289 | -48.55213 | 25309 ft | 436 kts | 352° |
| 2026-05-07 01:47 | -26.75218 | -48.55466 | 25785 ft | 440 kts | 352° |
| 2026-05-07 01:48 | -26.72146 | -48.55719 | 26304 ft | 443 kts | 352° |
| 2026-05-07 01:48 | -26.69062 | -48.55974 | 26757 ft | 448 kts | 352° |
| 2026-05-07 01:48 | -26.65894 | -48.56235 | 27216 ft | 452 kts | 352° |
| 2026-05-07 01:48 | -26.62729 | -48.56495 | 27671 ft | 455 kts | 352° |
| 2026-05-07 01:49 | -26.59574 | -48.56754 | 28108 ft | 459 kts | 352° |
| 2026-05-07 01:49 | -26.56364 | -48.57019 | 28562 ft | 462 kts | 352° |
| 2026-05-07 01:49 | -26.53091 | -48.57288 | 28958 ft | 467 kts | 352° |
| 2026-05-07 01:49 | -26.49844 | -48.57554 | 29396 ft | 470 kts | 352° |
| 2026-05-07 01:50 | -26.46531 | -48.57826 | 29788 ft | 474 kts | 352° |
| 2026-05-07 01:50 | -26.43166 | -48.58098 | 30171 ft | 479 kts | 352° |
| 2026-05-07 01:50 | -26.39775 | -48.58057 | 30499 ft | 489 kts | 1° |
| 2026-05-07 01:50 | -26.36386 | -48.57686 | 30971 ft | 491 kts | 1° |
| 2026-05-07 01:51 | -26.32950 | -48.57315 | 31474 ft | 491 kts | 1° |
| 2026-05-07 01:51 | -26.29494 | -48.56932 | 31920 ft | 493 kts | 1° |
| 2026-05-07 01:51 | -26.26069 | -48.56550 | 32417 ft | 492 kts | 1° |
| 2026-05-07 01:51 | -26.22649 | -48.56167 | 32865 ft | 493 kts | 0° |
| 2026-05-07 01:52 | -26.19191 | -48.55781 | 33246 ft | 495 kts | 0° |
| 2026-05-07 01:52 | -26.15748 | -48.55394 | 33776 ft | 495 kts | 0° |
| 2026-05-07 01:52 | -26.12265 | -48.55003 | 34282 ft | 494 kts | 0° |
| 2026-05-07 01:52 | -26.08862 | -48.54621 | 34735 ft | 495 kts | 0° |
| 2026-05-07 01:53 | -26.05401 | -48.54233 | 35202 ft | 494 kts | 0° |
| 2026-05-07 01:53 | -26.01981 | -48.53847 | 35832 ft | 491 kts | 0° |
| 2026-05-07 01:53 | -25.98526 | -48.53461 | 36180 ft | 493 kts | 0° |
| 2026-05-07 01:53 | -25.95067 | -48.53072 | 36685 ft | 490 kts | 0° |
| 2026-05-07 01:54 | -25.91676 | -48.52692 | 37032 ft | 491 kts | 0° |
| 2026-05-07 01:54 | -25.88269 | -48.52312 | 37361 ft | 492 kts | 0° |
| 2026-05-07 01:54 | -25.84815 | -48.51925 | 37718 ft | 492 kts | 0° |
| 2026-05-07 01:54 | -25.81385 | -48.51539 | 38093 ft | 489 kts | 0° |
| 2026-05-07 01:55 | -25.77973 | -48.51157 | 38063 ft | 489 kts | 0° |
| 2026-05-07 01:55 | -25.71170 | -48.50397 | 38083 ft | 487 kts | 0° |
| 2026-05-07 01:56 | -25.64380 | -48.49639 | 38085 ft | 488 kts | 1° |
| 2026-05-07 01:56 | -25.57558 | -48.48877 | 38091 ft | 489 kts | 0° |
| 2026-05-07 01:57 | -25.50763 | -48.48119 | 38095 ft | 490 kts | 0° |
| 2026-05-07 01:57 | -25.43936 | -48.47359 | 38091 ft | 490 kts | 1° |
| 2026-05-07 01:58 | -25.37097 | -48.46596 | 38097 ft | 491 kts | 1° |
| 2026-05-07 01:58 | -25.30261 | -48.45834 | 38101 ft | 492 kts | 1° |
| 2026-05-07 01:59 | -25.23432 | -48.45074 | 38104 ft | 492 kts | 1° |
| 2026-05-07 01:59 | -25.16554 | -48.44308 | 38137 ft | 491 kts | 1° |
| 2026-05-07 02:00 | -25.09696 | -48.43562 | 38166 ft | 490 kts | 0° |
| 2026-05-07 02:00 | -25.02867 | -48.42858 | 38193 ft | 490 kts | 0° |
| 2026-05-07 02:01 | -24.96043 | -48.42153 | 38199 ft | 490 kts | 1° |
| 2026-05-07 02:01 | -24.89177 | -48.41443 | 38180 ft | 490 kts | 0° |
| 2026-05-07 02:02 | -24.82440 | -48.40750 | 38149 ft | 491 kts | 1° |
| 2026-05-07 02:02 | -24.75534 | -48.40039 | 38131 ft | 491 kts | 1° |
| 2026-05-07 02:03 | -24.68737 | -48.39338 | 38122 ft | 490 kts | 1° |
| 2026-05-07 02:03 | -24.61866 | -48.38633 | 38118 ft | 491 kts | 1° |
| 2026-05-07 02:04 | -24.54999 | -48.37928 | 38125 ft | 494 kts | 1° |
| 2026-05-07 02:04 | -24.48124 | -48.37223 | 38115 ft | 492 kts | 1° |
| 2026-05-07 02:04 | -24.44631 | -48.36866 | 37601 ft | 499 kts | 1° |
| 2026-05-07 02:05 | -24.41212 | -48.36514 | 37531 ft | 489 kts | 1° |
| 2026-05-07 02:05 | -24.37782 | -48.36163 | 36799 ft | 491 kts | 1° |
| 2026-05-07 02:05 | -24.34344 | -48.35811 | 36099 ft | 491 kts | 1° |
| 2026-05-07 02:05 | -24.30934 | -48.35463 | 35422 ft | 491 kts | 1° |
| 2026-05-07 02:06 | -24.27457 | -48.35107 | 34760 ft | 491 kts | 1° |
| 2026-05-07 02:06 | -24.24072 | -48.34761 | 34126 ft | 490 kts | 1° |
| 2026-05-07 02:06 | -24.20639 | -48.34410 | 33507 ft | 488 kts | 0° |
| 2026-05-07 02:06 | -24.17253 | -48.34065 | 32936 ft | 486 kts | 0° |
| 2026-05-07 02:07 | -24.13863 | -48.33721 | 32405 ft | 483 kts | 1° |
| 2026-05-07 02:07 | -24.07157 | -48.33038 | 31324 ft | 479 kts | 1° |
| 2026-05-07 02:07 | -24.03830 | -48.32700 | 30778 ft | 477 kts | 1° |
| 2026-05-07 02:08 | -24.00506 | -48.32362 | 30225 ft | 475 kts | 2° |
| 2026-05-07 02:08 | -23.97221 | -48.32027 | 29676 ft | 473 kts | 2° |
| 2026-05-07 02:08 | -23.93903 | -48.31691 | 29167 ft | 470 kts | 2° |
| 2026-05-07 02:08 | -23.90638 | -48.31358 | 28672 ft | 467 kts | 2° |
| 2026-05-07 02:09 | -23.87405 | -48.30910 | 28127 ft | 466 kts | 9° |
| 2026-05-07 02:09 | -23.84291 | -48.29942 | 27607 ft | 465 kts | 19° |
| 2026-05-07 02:09 | -23.81381 | -48.28449 | 27049 ft | 464 kts | 30° |
| 2026-05-07 02:09 | -23.78647 | -48.26533 | 26468 ft | 462 kts | 33° |
| 2026-05-07 02:10 | -23.75977 | -48.24582 | 25822 ft | 457 kts | 33° |
| 2026-05-07 02:10 | -23.73374 | -48.22652 | 25232 ft | 446 kts | 34° |
| 2026-05-07 02:10 | -23.70834 | -48.20754 | 24690 ft | 436 kts | 34° |
| 2026-05-07 02:10 | -23.68336 | -48.18879 | 24218 ft | 432 kts | 34° |
| 2026-05-07 02:11 | -23.65872 | -48.17024 | 23697 ft | 430 kts | 34° |
| 2026-05-07 02:11 | -23.63394 | -48.15157 | 23170 ft | 427 kts | 34° |
| 2026-05-07 02:11 | -23.60953 | -48.13317 | 22647 ft | 425 kts | 34° |
| 2026-05-07 02:11 | -23.58522 | -48.11485 | 22127 ft | 422 kts | 34° |
| 2026-05-07 02:12 | -23.56117 | -48.09673 | 21968 ft | 410 kts | 34° |
| 2026-05-07 02:12 | -23.53756 | -48.07894 | 21399 ft | 411 kts | 35° |
| 2026-05-07 02:12 | -23.51411 | -48.06128 | 20838 ft | 411 kts | 35° |
| 2026-05-07 02:12 | -23.49046 | -48.04347 | 20427 ft | 404 kts | 35° |
| 2026-05-07 02:13 | -23.46802 | -48.02659 | 20414 ft | 388 kts | 35° |
| 2026-05-07 02:13 | -23.44571 | -48.00980 | 19988 ft | 386 kts | 35° |
| 2026-05-07 02:13 | -23.42349 | -47.99309 | 19619 ft | 381 kts | 35° |
| 2026-05-07 02:13 | -23.40174 | -47.97675 | 19146 ft | 376 kts | 35° |
| 2026-05-07 02:14 | -23.38030 | -47.96064 | 18377 ft | 373 kts | 36° |
| 2026-05-07 02:14 | -23.35910 | -47.94472 | 17755 ft | 365 kts | 36° |
| 2026-05-07 02:14 | -23.33846 | -47.92923 | 17052 ft | 361 kts | 36° |
| 2026-05-07 02:14 | -23.31787 | -47.91377 | 16401 ft | 354 kts | 36° |
| 2026-05-07 02:15 | -23.29770 | -47.89864 | 16007 ft | 347 kts | 36° |
| 2026-05-07 02:15 | -23.27725 | -47.88329 | 15501 ft | 358 kts | 36° |
| 2026-05-07 02:15 | -23.25668 | -47.86786 | 14793 ft | 364 kts | 36° |
| 2026-05-07 02:15 | -23.23605 | -47.85241 | 14528 ft | 349 kts | 36° |
| 2026-05-07 02:16 | -23.21698 | -47.83686 | 13961 ft | 339 kts | 46° |
| 2026-05-07 02:16 | -23.20268 | -47.81708 | 13268 ft | 333 kts | 62° |
| 2026-05-07 02:16 | -23.19168 | -47.79520 | 12639 ft | 327 kts | 62° |
| 2026-05-07 02:16 | -23.18082 | -47.77364 | 11916 ft | 325 kts | 62° |
| 2026-05-07 02:17 | -23.17018 | -47.75220 | 11274 ft | 320 kts | 62° |
| 2026-05-07 02:17 | -23.15974 | -47.73105 | 10704 ft | 315 kts | 61° |
| 2026-05-07 02:17 | -23.14939 | -47.71001 | 10352 ft | 311 kts | 61° |
| 2026-05-07 02:17 | -23.13949 | -47.68984 | 10239 ft | 295 kts | 61° |
| 2026-05-07 02:18 | -23.13003 | -47.67056 | 10067 ft | 280 kts | 61° |
| 2026-05-07 02:18 | -23.12096 | -47.65205 | 10111 ft | 272 kts | 61° |
| 2026-05-07 02:18 | -23.11209 | -47.63399 | 10061 ft | 274 kts | 61° |
| 2026-05-07 02:18 | -23.10294 | -47.61534 | 9912 ft | 277 kts | 61° |
| 2026-05-07 02:19 | -23.09395 | -47.59699 | 9636 ft | 275 kts | 61° |
| 2026-05-07 02:19 | -23.08495 | -47.57867 | 9352 ft | 273 kts | 61° |
| 2026-05-07 02:19 | -23.07602 | -47.56047 | 9043 ft | 271 kts | 61° |
| 2026-05-07 02:19 | -23.06720 | -47.54251 | 8782 ft | 268 kts | 61° |
| 2026-05-07 02:20 | -23.05829 | -47.52437 | 8437 ft | 269 kts | 61° |
| 2026-05-07 02:20 | -23.04955 | -47.50659 | 8161 ft | 269 kts | 61° |
| 2026-05-07 02:20 | -23.04068 | -47.48855 | 7797 ft | 270 kts | 61° |
| 2026-05-07 02:20 | -23.03193 | -47.47075 | 7634 ft | 265 kts | 61° |
| 2026-05-07 02:21 | -23.02331 | -47.45322 | 7413 ft | 258 kts | 61° |
| 2026-05-07 02:21 | -23.01507 | -47.43645 | 7265 ft | 244 kts | 61° |
| 2026-05-07 02:21 | -23.00736 | -47.42079 | 7116 ft | 231 kts | 61° |
| 2026-05-07 02:21 | -22.99994 | -47.40570 | 7009 ft | 216 kts | 61° |
| 2026-05-07 02:22 | -22.99297 | -47.39154 | 6885 ft | 208 kts | 61° |
| 2026-05-07 02:22 | -22.98625 | -47.37791 | 6692 ft | 204 kts | 61° |
| 2026-05-07 02:22 | -22.97956 | -47.36433 | 6554 ft | 203 kts | 61° |
| 2026-05-07 02:22 | -22.97048 | -47.35256 | 6410 ft | 204 kts | 39° |
| 2026-05-07 02:23 | -22.95907 | -47.34298 | 6118 ft | 210 kts | 39° |
| 2026-05-07 02:23 | -22.94737 | -47.33298 | 5782 ft | 213 kts | 39° |
| 2026-05-07 02:23 | -22.93560 | -47.32304 | 5453 ft | 215 kts | 38° |
| 2026-05-07 02:23 | -22.92364 | -47.31298 | 5116 ft | 217 kts | 38° |
| 2026-05-07 02:24 | -22.91235 | -47.30226 | 4772 ft | 217 kts | 54° |
| 2026-05-07 02:24 | -22.90710 | -47.28708 | 4397 ft | 220 kts | 87° |
| 2026-05-07 02:24 | -22.91091 | -47.27130 | 4106 ft | 213 kts | 121° |
| 2026-05-07 02:24 | -22.91957 | -47.25858 | 3864 ft | 204 kts | 124° |
| 2026-05-07 02:25 | -22.92738 | -47.24662 | 3740 ft | 180 kts | 123° |
| 2026-05-07 02:25 | -22.93445 | -47.23631 | 3755 ft | 156 kts | 124° |
| 2026-05-07 02:25 | -22.94073 | -47.22734 | 3860 ft | 149 kts | 124° |
| 2026-05-07 02:25 | -22.94746 | -47.21774 | 3793 ft | 164 kts | 124° |
| 2026-05-07 02:26 | -22.95445 | -47.20799 | 3554 ft | 161 kts | 125° |
| 2026-05-07 02:26 | -22.96121 | -47.19859 | 3320 ft | 153 kts | 125° |
| 2026-05-07 02:26 | -22.96775 | -47.18949 | 3122 ft | 151 kts | 125° |
| 2026-05-07 02:26 | -22.97421 | -47.18051 | 2942 ft | 152 kts | 126° |
| 2026-05-07 02:27 | -22.98078 | -47.17141 | 2738 ft | 150 kts | 126° |
| 2026-05-07 02:27 | -22.98727 | -47.16238 | 2548 ft | 149 kts | 127° |
| 2026-05-07 02:27 | -22.99366 | -47.15356 | 2355 ft | 148 kts | 128° |
| 2026-05-07 02:27 | -23.00001 | -47.14484 | 2189 ft | 146 kts | 128° |
| 2026-05-07 02:28 | -23.00566 | -47.13696 | 2182 ft | 104 kts | 123° |
| 2026-05-07 02:28 | -23.00884 | -47.13244 | 2182 ft | 65 kts | 127° |
| 2026-05-07 02:28 | -23.01078 | -47.12978 | 2182 ft | 29 kts | 129° |
| 2026-05-07 02:28 | -23.01207 | -47.12865 | 2182 ft | 16 kts | 154° |
| 2026-05-07 02:29 | -23.01299 | -47.12818 | 2183 ft | 13 kts | 154° |
| 2026-05-07 02:29 | -23.01375 | -47.12810 | 2183 ft | 9 kts | 219° |
| 2026-05-07 02:29 | -23.01382 | -47.12869 | 2183 ft | 8 kts | 295° |
| 2026-05-07 02:29 | -23.01341 | -47.12928 | 2182 ft | 11 kts | 308° |
| 2026-05-07 02:30 | -23.01286 | -47.13005 | 2182 ft | 14 kts | 308° |
| 2026-05-07 02:30 | -23.01217 | -47.13101 | 2182 ft | 17 kts | 308° |
| 2026-05-07 02:30 | -23.01135 | -47.13216 | 2182 ft | 20 kts | 308° |
| 2026-05-07 02:30 | -23.01041 | -47.13347 | 2182 ft | 22 kts | 308° |
| 2026-05-07 02:31 | -23.00936 | -47.13493 | 2182 ft | 26 kts | 308° |
| 2026-05-07 02:31 | -23.00826 | -47.13649 | 2182 ft | 23 kts | 308° |
| 2026-05-07 02:31 | -23.00727 | -47.13796 | 2181 ft | 23 kts | 287° |
| 2026-05-07 02:31 | -23.00689 | -47.13981 | 2181 ft | 25 kts | 293° |
| 2026-05-07 02:32 | -23.00597 | -47.14127 | 2181 ft | 18 kts | 307° |
| 2026-05-07 02:32 | -23.00591 | -47.14212 | 2181 ft | 8 kts | 217° |
| 2026-05-07 02:32 | -23.00633 | -47.14244 | 2181 ft | 5 kts | 218° |
| 2026-05-07 02:32 | -23.00636 | -47.14246 | 2181 ft | 0 kts | 217° |